createdAt,value
2018-03-04T00:00:40.371Z,52.30
2018-03-04T00:03:08.661Z,53.20
2018-03-04T00:05:37.675Z,58.57
2018-03-04T00:08:05.955Z,61.97
2018-03-04T00:10:34.263Z,61.73
2018-03-04T00:13:02.500Z,56.43
2018-03-04T00:15:30.832Z,60.43
2018-03-04T00:17:59.276Z,60.07
2018-03-04T00:20:27.559Z,64.97
2018-03-04T00:22:55.900Z,61.63
2018-03-04T00:25:25.144Z,58.57
2018-03-04T00:27:53.570Z,71.23
2018-03-04T00:30:22.648Z,60.27
2018-03-04T00:32:51.750Z,61.17
2018-03-04T00:35:20.027Z,67.20
2018-03-04T00:37:49.102Z,59.03
2018-03-04T00:40:18.156Z,67.50
2018-03-04T00:42:46.499Z,60.90
2018-03-04T00:45:15.553Z,58.63
2018-03-04T00:47:43.833Z,59.30
2018-03-04T00:50:12.265Z,52.57
2018-03-04T00:52:40.531Z,62.13
2018-03-04T00:55:09.563Z,60.13
2018-03-04T00:57:37.835Z,58.37
2018-03-04T01:00:07.843Z,56.83
2018-03-04T01:02:36.111Z,65.70
2018-03-04T01:05:04.407Z,64.33
2018-03-04T01:07:32.671Z,54.17
2018-03-04T01:10:00.937Z,61.17
2018-03-04T01:12:29.338Z,66.77
2018-03-04T01:14:57.619Z,68.57
2018-03-04T01:17:25.905Z,67.17
2018-03-04T01:19:54.171Z,63.37
2018-03-04T01:22:22.507Z,63.27
2018-03-04T01:24:50.844Z,66.93
2018-03-04T01:27:19.291Z,63.67
2018-03-04T01:29:47.562Z,62.00
2018-03-04T01:32:15.884Z,64.10
2018-03-04T01:34:44.136Z,65.17
2018-03-04T01:37:12.431Z,65.13
2018-03-04T01:39:40.700Z,51.03
2018-03-04T01:42:09.751Z,67.27
2018-03-04T01:44:38.020Z,60.53
2018-03-04T01:47:06.318Z,66.93
2018-03-04T01:49:34.595Z,62.57
2018-03-04T01:52:02.900Z,61.20
2018-03-04T01:54:31.632Z,66.20
2018-03-04T01:56:59.911Z,65.13
2018-03-04T01:59:28.180Z,62.07
2018-03-04T02:01:56.462Z,63.93
2018-03-04T02:04:25.004Z,61.03
2018-03-04T02:06:53.241Z,61.63
2018-03-04T02:09:21.517Z,58.60
2018-03-04T02:11:49.779Z,62.73
2018-03-04T02:14:18.823Z,61.47
2018-03-04T02:16:47.178Z,63.43
2018-03-04T02:19:15.420Z,65.17
2018-03-04T02:21:43.732Z,66.67
2018-03-04T02:24:12.087Z,66.30
2018-03-04T02:26:41.900Z,60.80
2018-03-04T02:29:10.258Z,62.80
2018-03-04T02:31:38.535Z,63.20
2018-03-04T02:34:06.791Z,62.57
2018-03-04T02:36:35.123Z,64.20
2018-03-04T02:39:03.424Z,61.77
2018-03-04T02:41:31.810Z,63.80
2018-03-04T02:44:00.148Z,69.33
2018-03-04T02:46:29.168Z,65.13
2018-03-04T02:48:57.443Z,63.10
2018-03-04T02:51:25.741Z,59.77
2018-03-04T02:53:54.012Z,67.10
2018-03-04T02:56:22.275Z,60.17
2018-03-04T02:58:50.569Z,64.57
2018-03-04T03:01:18.808Z,56.23
2018-03-04T03:03:47.101Z,65.50
2018-03-04T03:06:15.348Z,70.87
2018-03-04T03:08:43.898Z,55.77
2018-03-04T03:11:12.166Z,71.13
2018-03-04T03:13:40.469Z,58.87
2018-03-04T03:16:08.850Z,68.17
2018-03-04T03:18:37.123Z,61.50
2018-03-04T03:21:06.181Z,64.67
2018-03-04T03:23:34.418Z,63.80
2018-03-04T03:26:02.711Z,61.60
2018-03-04T03:28:30.971Z,56.03
2018-03-04T03:30:59.300Z,67.03
2018-03-04T03:33:27.555Z,53.53
2018-03-04T03:35:55.823Z,59.70
2018-03-04T03:38:24.092Z,65.87
2018-03-04T03:40:52.372Z,58.77
2018-03-04T03:43:20.793Z,64.87
2018-03-04T03:45:49.033Z,57.33
2018-03-04T03:48:17.337Z,63.00
2018-03-04T03:50:45.625Z,64.03
2018-03-04T03:53:14.712Z,57.53
2018-03-04T03:55:43.778Z,58.33
2018-03-04T03:58:12.061Z,55.83
2018-03-04T04:00:40.323Z,63.53
2018-03-04T04:03:08.714Z,61.03
2018-03-04T04:05:37.109Z,55.57
2018-03-04T04:08:05.379Z,64.33
2018-03-04T04:10:33.642Z,60.60
2018-03-04T04:13:02.722Z,57.47
2018-03-04T04:15:30.987Z,59.80
2018-03-04T04:17:59.271Z,59.80
2018-03-04T04:20:27.584Z,61.73
2018-03-04T04:22:56.730Z,58.10
2018-03-04T04:25:25.063Z,61.20
2018-03-04T04:27:54.210Z,62.27
2018-03-04T04:30:22.500Z,60.80
2018-03-04T04:32:50.748Z,61.30
2018-03-04T04:35:19.035Z,64.97
2018-03-04T04:37:47.294Z,64.93
2018-03-04T04:40:15.628Z,63.20
2018-03-04T04:42:43.875Z,66.47
2018-03-04T04:45:12.191Z,63.20
2018-03-04T04:47:40.454Z,61.57
2018-03-04T04:50:09.513Z,60.10
2018-03-04T04:52:37.813Z,59.60
2018-03-04T04:55:06.069Z,64.23
2018-03-04T04:57:34.348Z,71.83
2018-03-04T05:00:02.796Z,72.53
2018-03-04T05:02:31.033Z,81.97
2018-03-04T05:04:59.311Z,80.80
2018-03-04T05:07:27.677Z,83.30
2018-03-04T05:09:56.007Z,82.50
2018-03-04T05:12:24.295Z,84.70
2018-03-04T05:14:52.566Z,89.23
2018-03-04T05:17:20.843Z,87.93
2018-03-04T05:19:49.147Z,75.07
2018-03-04T05:22:18.191Z,81.70
2018-03-04T05:24:46.456Z,64.00
2018-03-04T05:27:14.747Z,82.07
2018-03-04T05:29:43.064Z,78.73
2018-03-04T05:32:11.424Z,80.07
2018-03-04T05:34:41.178Z,66.87
2018-03-04T05:37:09.457Z,66.80
2018-03-04T05:39:37.836Z,62.57
2018-03-04T05:42:06.135Z,66.37
2018-03-04T05:44:34.431Z,60.67
2018-03-04T05:47:02.727Z,60.43
2018-03-04T05:49:31.008Z,66.60
2018-03-04T05:52:00.079Z,67.47
2018-03-04T05:54:28.379Z,69.93
2018-03-04T05:56:57.426Z,73.23
2018-03-04T05:59:25.696Z,69.63
2018-03-04T06:01:53.951Z,74.37
2018-03-04T06:04:22.227Z,92.63
2018-03-04T06:06:50.523Z,92.37
2018-03-04T06:09:18.839Z,93.50
2018-03-04T06:11:47.162Z,87.50
2018-03-04T06:14:15.434Z,70.87
2018-03-04T06:16:43.715Z,71.00
2018-03-04T06:19:11.974Z,70.30
2018-03-04T06:21:40.317Z,62.37
2018-03-04T06:24:09.529Z,64.40
2018-03-04T06:26:38.999Z,63.90
2018-03-04T06:29:07.270Z,70.47
2018-03-04T06:31:35.754Z,73.07
2018-03-04T06:34:04.036Z,66.67
2018-03-04T06:36:32.316Z,64.53
2018-03-04T06:39:00.607Z,77.17
2018-03-04T06:41:28.960Z,76.80
2018-03-04T06:43:58.019Z,86.43
2018-03-04T06:46:26.288Z,73.70
2018-03-04T06:48:54.677Z,78.67
2018-03-04T06:51:23.049Z,87.23
2018-03-04T06:53:51.463Z,75.97
2018-03-04T06:56:19.734Z,71.43
2018-03-04T06:58:47.982Z,72.03
2018-03-04T07:01:16.284Z,64.53
2018-03-04T07:03:45.367Z,77.10
2018-03-04T07:06:13.773Z,74.17
2018-03-04T07:08:41.998Z,79.07
2018-03-04T07:11:10.285Z,76.00
2018-03-04T07:13:38.559Z,82.37
2018-03-04T07:16:06.882Z,73.93
2018-03-04T07:18:35.135Z,64.13
2018-03-04T07:21:03.428Z,60.23
2018-03-04T07:23:31.738Z,69.30
2018-03-04T07:26:00.046Z,60.93
2018-03-04T07:28:28.512Z,49.37
2018-03-04T07:30:56.787Z,56.90
2018-03-04T07:33:25.123Z,54.17
2018-03-04T07:35:53.351Z,57.53
2018-03-04T07:38:21.615Z,55.10
2018-03-04T07:40:49.888Z,56.53
2018-03-04T07:43:18.407Z,53.23
2018-03-04T07:45:46.799Z,44.67
2018-03-04T07:48:16.624Z,55.30
2018-03-04T07:50:44.993Z,50.23
2018-03-04T07:53:13.285Z,47.37
2018-03-04T07:55:42.302Z,52.63
2018-03-04T07:58:10.619Z,49.43
2018-03-04T08:00:39.720Z,50.63
2018-03-04T08:03:09.380Z,47.50
2018-03-04T08:05:37.905Z,44.90
2018-03-04T08:08:06.181Z,48.17
2018-03-04T08:10:34.471Z,49.40
2018-03-04T08:13:03.491Z,47.30
2018-03-04T08:15:31.802Z,41.83
2018-03-04T08:18:00.868Z,39.73
2018-03-04T08:20:29.192Z,40.87
2018-03-04T08:22:58.293Z,47.50
2018-03-04T08:25:32.175Z,49.47
2018-03-04T08:28:12.443Z,42.67
2018-03-04T08:30:40.795Z,48.77
2018-03-04T08:33:09.197Z,47.23
2018-03-04T08:35:37.469Z,51.03
2018-03-04T08:38:05.726Z,56.17
2018-03-04T08:40:34.022Z,49.60
2018-03-04T08:43:03.118Z,52.70
2018-03-04T08:45:32.199Z,50.37
2018-03-04T08:48:00.587Z,52.30
2018-03-04T08:50:28.920Z,53.47
2018-03-04T08:52:57.191Z,45.17
2018-03-04T08:55:25.464Z,41.67
2018-03-04T08:57:53.760Z,43.73
2018-03-04T09:00:22.007Z,44.60
2018-03-04T09:02:50.335Z,41.30
2018-03-04T09:05:18.768Z,42.87
2018-03-04T09:07:47.999Z,43.10
2018-03-04T09:10:16.251Z,39.90
2018-03-04T09:12:44.535Z,45.83
2018-03-04T09:15:12.911Z,43.57
2018-03-04T09:17:41.196Z,40.23
2018-03-04T09:20:09.498Z,43.70
2018-03-04T09:22:37.889Z,41.43
2018-03-04T09:25:06.905Z,37.70
2018-03-04T09:27:35.198Z,36.00
2018-03-04T09:30:03.488Z,44.57
2018-03-04T09:32:32.548Z,42.00
2018-03-04T09:35:00.883Z,40.30
2018-03-04T09:37:29.136Z,46.07
2018-03-04T09:39:57.442Z,45.67
2018-03-04T09:42:26.473Z,37.17
2018-03-04T09:44:54.731Z,40.33
2018-03-04T09:47:22.979Z,39.07
2018-03-04T09:49:51.278Z,49.30
2018-03-04T09:52:19.582Z,47.70
2018-03-04T09:54:47.975Z,51.43
2018-03-04T09:57:17.001Z,43.23
2018-03-04T09:59:45.251Z,50.43
2018-03-04T10:02:15.058Z,46.30
2018-03-04T10:04:43.300Z,42.87
2018-03-04T10:07:11.560Z,40.80
2018-03-04T10:09:39.812Z,42.27
2018-03-04T10:12:08.940Z,39.70
2018-03-04T10:14:37.184Z,34.20
2018-03-04T10:17:06.237Z,35.73
2018-03-04T10:19:34.552Z,32.70
2018-03-04T10:22:03.605Z,34.97
2018-03-04T10:24:31.877Z,36.67
2018-03-04T10:27:00.120Z,33.93
2018-03-04T10:29:28.383Z,35.70
2018-03-04T10:31:57.432Z,37.47
2018-03-04T10:34:27.228Z,38.57
2018-03-04T10:36:55.495Z,37.13
2018-03-04T10:39:23.787Z,33.93
2018-03-04T10:41:52.072Z,37.20
2018-03-04T10:44:20.368Z,34.57
2018-03-04T10:46:49.410Z,34.50
2018-03-04T10:49:17.692Z,36.63
2018-03-04T10:51:45.983Z,32.87
2018-03-04T10:54:14.238Z,31.83
2018-03-04T10:56:42.496Z,37.80
2018-03-04T10:59:10.793Z,32.27
2018-03-04T11:01:39.110Z,35.67
2018-03-04T11:04:07.396Z,35.87
2018-03-04T11:06:35.698Z,33.47
2018-03-04T11:09:04.823Z,34.20
2018-03-04T11:11:33.104Z,33.67
2018-03-04T11:14:01.374Z,35.07
2018-03-04T11:16:29.676Z,33.80
2018-03-04T11:18:57.927Z,36.17
2018-03-04T11:21:26.242Z,36.27
2018-03-04T11:23:55.287Z,32.77
2018-03-04T11:26:23.557Z,27.37
2018-03-04T11:28:51.973Z,32.10
2018-03-04T11:31:20.244Z,32.83
2018-03-04T11:33:48.549Z,32.10
2018-03-04T11:36:16.806Z,31.30
2018-03-04T11:38:45.074Z,33.80
2018-03-04T11:41:13.504Z,31.87
2018-03-04T11:43:41.787Z,30.10
2018-03-04T11:46:10.075Z,25.77
2018-03-04T11:48:38.375Z,31.93
2018-03-04T11:51:06.728Z,31.73
2018-03-04T11:53:34.992Z,31.17
2018-03-04T11:56:03.306Z,29.20
2018-03-04T11:58:31.559Z,28.83
2018-03-04T12:00:59.831Z,32.60
2018-03-04T12:03:28.148Z,32.07
2018-03-04T12:05:57.186Z,31.57
2018-03-04T12:08:25.599Z,32.67
2018-03-04T12:10:53.834Z,31.20
2018-03-04T12:13:22.172Z,28.60
2018-03-04T12:15:50.500Z,29.77
2018-03-04T12:18:18.924Z,29.97
2018-03-04T12:20:47.974Z,31.60
2018-03-04T12:23:16.242Z,28.67
2018-03-04T12:25:44.607Z,30.83
2018-03-04T12:28:12.900Z,29.77
2018-03-04T12:30:41.215Z,30.13
2018-03-04T12:33:09.578Z,27.10
2018-03-04T12:35:37.992Z,29.13
2018-03-04T12:38:07.047Z,26.43
2018-03-04T12:40:35.350Z,27.40
2018-03-04T12:43:03.697Z,24.87
2018-03-04T12:45:31.969Z,27.37
2018-03-04T12:48:00.215Z,25.33
2018-03-04T12:50:28.483Z,23.50
2018-03-04T12:52:56.769Z,21.90
2018-03-04T12:55:25.091Z,23.80
2018-03-04T12:57:54.120Z,25.53
2018-03-04T13:00:22.664Z,26.07
2018-03-04T13:02:51.698Z,26.70
2018-03-04T13:05:19.988Z,22.83
2018-03-04T13:07:48.236Z,22.33
2018-03-04T13:10:16.500Z,24.03
2018-03-04T13:12:44.756Z,21.03
2018-03-04T13:15:13.808Z,20.13
2018-03-04T13:17:42.173Z,23.63
2018-03-04T13:20:10.514Z,21.23
2018-03-04T13:22:39.695Z,22.27
2018-03-04T13:25:08.722Z,21.40
2018-03-04T13:27:37.016Z,20.07
2018-03-04T13:30:05.298Z,20.63
2018-03-04T13:32:33.626Z,20.17
2018-03-04T13:35:02.645Z,20.20
2018-03-04T13:37:30.935Z,18.13
2018-03-04T13:39:59.212Z,18.97
2018-03-04T13:42:27.491Z,20.87
2018-03-04T13:44:55.751Z,22.40
2018-03-04T13:47:24.036Z,19.20
2018-03-04T13:49:52.309Z,18.97
2018-03-04T13:52:20.701Z,20.30
2018-03-04T13:54:49.045Z,18.80
2018-03-04T13:57:17.354Z,19.50
2018-03-04T13:59:45.608Z,21.53
2018-03-04T14:02:13.910Z,19.03
2018-03-04T14:04:42.283Z,17.23
2018-03-04T14:07:12.545Z,20.23
2018-03-04T14:09:40.911Z,18.77
2018-03-04T14:12:09.288Z,18.70
2018-03-04T14:14:37.858Z,20.30
2018-03-04T14:17:06.114Z,20.13
2018-03-04T14:19:34.376Z,20.77
2018-03-04T14:22:02.646Z,19.00
2018-03-04T14:24:30.941Z,20.27
2018-03-04T14:26:59.375Z,22.20
2018-03-04T14:29:27.664Z,20.73
2018-03-04T14:31:55.947Z,18.77
2018-03-04T14:34:24.291Z,17.77
2018-03-04T14:36:53.364Z,16.07
2018-03-04T14:39:23.302Z,15.93
2018-03-04T14:41:51.568Z,17.73
2018-03-04T14:44:19.877Z,15.47
2018-03-04T14:46:48.126Z,14.07
2018-03-04T14:49:16.568Z,16.77
2018-03-04T14:51:45.612Z,16.13
2018-03-04T14:54:13.898Z,16.57
2018-03-04T14:56:42.207Z,12.60
2018-03-04T14:59:11.277Z,12.37
2018-03-04T15:01:39.607Z,13.63
2018-03-04T15:04:08.632Z,14.20
2018-03-04T15:06:36.919Z,14.00
2018-03-04T15:09:05.186Z,14.50
2018-03-04T15:11:33.465Z,13.97
2018-03-04T15:14:01.742Z,15.23
2018-03-04T15:16:29.995Z,13.13
2018-03-04T15:18:58.459Z,14.10
2018-03-04T15:21:26.813Z,11.43
2018-03-04T15:23:55.121Z,12.07
2018-03-04T15:26:23.468Z,11.63
2018-03-04T15:28:51.736Z,11.97
2018-03-04T15:31:20.938Z,11.93
2018-03-04T15:33:49.984Z,13.07
2018-03-04T15:36:18.234Z,12.43
2018-03-04T15:38:46.647Z,10.67
2018-03-04T15:41:14.956Z,11.03
2018-03-04T15:43:43.338Z,13.60
2018-03-04T15:46:11.673Z,12.40
2018-03-04T15:48:39.964Z,12.50
2018-03-04T15:51:08.250Z,11.97
2018-03-04T15:53:36.550Z,11.93
2018-03-04T15:56:04.939Z,11.50
2018-03-04T15:58:33.374Z,12.20
2018-03-04T16:01:02.454Z,12.93
2018-03-04T16:03:30.756Z,12.40
2018-03-04T16:05:59.038Z,12.57
2018-03-04T16:08:27.314Z,11.10
2018-03-04T16:10:55.568Z,12.00
2018-03-04T16:13:24.017Z,11.80
2018-03-04T16:15:52.419Z,11.97
2018-03-04T16:18:20.748Z,11.83
2018-03-04T16:20:49.030Z,12.10
2018-03-04T16:23:17.302Z,11.70
2018-03-04T16:25:45.604Z,11.00
2018-03-04T16:28:13.947Z,11.80
2018-03-04T16:30:42.286Z,10.77
2018-03-04T16:33:11.534Z,11.83
2018-03-04T16:35:39.862Z,12.47
2018-03-04T16:38:08.144Z,13.00
2018-03-04T16:40:36.429Z,12.23
2018-03-04T16:43:05.478Z,11.37
2018-03-04T16:45:33.791Z,12.03
2018-03-04T16:48:02.090Z,11.87
2018-03-04T16:50:31.118Z,12.87
2018-03-04T16:52:59.383Z,13.23
2018-03-04T16:55:27.675Z,12.27
2018-03-04T16:57:55.994Z,12.97
2018-03-04T17:00:24.377Z,11.37
2018-03-04T17:02:52.655Z,14.17
2018-03-04T17:05:21.841Z,14.90
2018-03-04T17:07:51.524Z,15.93
2018-03-04T17:10:19.804Z,17.10
2018-03-04T17:12:48.892Z,16.33
2018-03-04T17:15:17.287Z,16.07
2018-03-04T17:17:45.575Z,16.30
2018-03-04T17:20:14.612Z,17.17
2018-03-04T17:22:42.869Z,16.80
2018-03-04T17:25:11.179Z,17.10
2018-03-04T17:27:40.283Z,21.87
2018-03-04T17:30:08.559Z,25.47
2018-03-04T17:32:36.819Z,26.37
2018-03-04T17:35:05.149Z,24.50
2018-03-04T17:37:33.473Z,21.00
2018-03-04T17:40:01.670Z,21.57
2018-03-04T17:42:30.069Z,20.70
2018-03-04T17:44:59.092Z,21.67
2018-03-04T17:47:27.436Z,23.40
2018-03-04T17:49:56.473Z,21.27
2018-03-04T17:52:24.786Z,23.00
2018-03-04T17:54:53.305Z,30.43
2018-03-04T17:57:21.601Z,30.50
2018-03-04T17:59:49.848Z,23.57
2018-03-04T18:02:18.901Z,22.80
2018-03-04T18:04:47.239Z,21.90
2018-03-04T18:07:15.529Z,20.50
2018-03-04T18:09:43.790Z,20.57
2018-03-04T18:12:12.084Z,18.47
2018-03-04T18:14:40.341Z,17.53
2018-03-04T18:17:08.651Z,17.73
2018-03-04T18:19:37.716Z,19.40
2018-03-04T18:22:13.175Z,19.50
2018-03-04T18:24:41.439Z,20.50
2018-03-04T18:27:09.812Z,20.43
2018-03-04T18:29:38.139Z,21.13
2018-03-04T18:32:06.466Z,19.27
2018-03-04T18:34:34.755Z,21.80
2018-03-04T18:37:03.000Z,21.10
2018-03-04T18:39:31.367Z,21.17
2018-03-04T18:41:59.647Z,21.43
2018-03-04T18:44:27.931Z,20.33
2018-03-04T18:46:56.193Z,22.03
2018-03-04T18:49:24.473Z,21.87
2018-03-04T18:51:52.750Z,21.83
2018-03-04T18:54:21.025Z,21.00
2018-03-04T18:56:49.279Z,18.60
2018-03-04T18:59:17.554Z,20.40
2018-03-04T19:01:45.816Z,18.07
2018-03-04T19:04:14.103Z,19.60
2018-03-04T19:06:43.381Z,20.37
2018-03-04T19:09:11.675Z,20.63
2018-03-04T19:11:40.269Z,21.83
2018-03-04T19:14:09.723Z,22.70
2018-03-04T19:16:38.176Z,22.90
2018-03-04T19:19:06.445Z,21.57
2018-03-04T19:21:34.756Z,25.10
2018-03-04T19:24:03.015Z,26.93
2018-03-04T19:26:31.286Z,24.70
2018-03-04T19:28:59.602Z,26.17
2018-03-04T19:31:28.022Z,24.93
2018-03-04T19:33:56.306Z,25.40
2018-03-04T19:36:24.568Z,26.00
2018-03-04T19:38:52.847Z,27.10
2018-03-04T19:41:21.354Z,31.00
2018-03-04T19:43:49.594Z,29.87
2018-03-04T19:46:17.880Z,29.17
2018-03-04T19:48:46.147Z,29.50
2018-03-04T19:51:14.410Z,27.03
2018-03-04T19:53:43.594Z,27.47
2018-03-04T19:56:11.875Z,28.17
2018-03-04T19:58:40.179Z,21.87
2018-03-04T20:01:08.440Z,29.47
2018-03-04T20:03:36.752Z,28.47
2018-03-04T20:06:05.053Z,26.23
2018-03-04T20:08:33.437Z,31.47
2018-03-04T20:11:02.572Z,31.70
2018-03-04T20:13:30.918Z,32.23
2018-03-04T20:15:59.984Z,30.57
2018-03-04T20:18:28.879Z,33.20
2018-03-04T20:20:57.164Z,35.27
2018-03-04T20:23:26.207Z,37.50
2018-03-04T20:25:54.533Z,36.17
2018-03-04T20:28:22.827Z,42.97
2018-03-04T20:30:51.452Z,43.83
2018-03-04T20:33:19.727Z,44.57
2018-03-04T20:35:47.991Z,46.10
2018-03-04T20:38:16.330Z,38.13
2018-03-04T20:40:44.602Z,31.57
2018-03-04T20:43:13.628Z,36.27
2018-03-04T20:45:41.918Z,34.93
2018-03-04T20:48:10.263Z,32.77
2018-03-04T20:50:38.682Z,35.47
2018-03-04T20:53:06.949Z,33.53
2018-03-04T20:55:35.352Z,33.87
2018-03-04T20:58:03.672Z,37.13
2018-03-04T21:00:31.967Z,38.90
2018-03-04T21:03:00.292Z,36.97
2018-03-04T21:05:28.587Z,32.17
2018-03-04T21:07:57.618Z,40.00
2018-03-04T21:10:25.958Z,37.33
2018-03-04T21:12:54.318Z,36.63
2018-03-04T21:15:23.379Z,36.37
2018-03-04T21:17:51.675Z,38.43
2018-03-04T21:20:19.981Z,35.00
2018-03-04T21:22:49.050Z,39.93
2018-03-04T21:25:17.309Z,37.00
2018-03-04T21:27:45.596Z,41.53
2018-03-04T21:30:13.883Z,41.67
2018-03-04T21:32:42.186Z,36.50
2018-03-04T21:35:11.208Z,38.67
2018-03-04T21:37:39.462Z,37.23
2018-03-04T21:40:07.755Z,36.70
2018-03-04T21:42:36.051Z,38.83
2018-03-04T21:45:04.301Z,40.23
2018-03-04T21:47:32.598Z,39.10
2018-03-04T21:50:00.852Z,39.73
2018-03-04T21:52:29.208Z,38.13
2018-03-04T21:54:57.468Z,32.97
2018-03-04T21:57:25.757Z,29.40
2018-03-04T21:59:56.736Z,30.07
2018-03-04T22:02:24.996Z,27.10
2018-03-04T22:04:53.277Z,25.87
2018-03-04T22:07:21.536Z,23.30
2018-03-04T22:09:49.781Z,20.23
2018-03-04T22:12:18.068Z,18.40
2018-03-04T22:14:46.348Z,16.50
2018-03-04T22:17:14.606Z,16.03
2018-03-04T22:19:42.975Z,13.93
2018-03-04T22:22:12.249Z,13.50
2018-03-04T22:24:40.498Z,12.93
2018-03-04T22:27:08.772Z,11.97
2018-03-04T22:29:37.045Z,10.40
2018-03-04T22:32:05.380Z,10.77
2018-03-04T22:34:33.599Z,9.37
2018-03-04T22:37:01.877Z,9.50
2018-03-04T22:39:30.134Z,9.43
2018-03-04T22:41:58.418Z,7.97
2018-03-04T22:44:26.754Z,8.77
2018-03-04T22:46:54.995Z,8.70
2018-03-04T22:49:23.252Z,8.60
2018-03-04T22:51:51.499Z,8.47
2018-03-04T22:54:19.783Z,7.37
2018-03-04T22:56:48.037Z,7.87
2018-03-04T22:59:16.263Z,7.73
2018-03-04T23:01:44.532Z,7.37
2018-03-04T23:04:12.876Z,7.10
2018-03-04T23:06:41.256Z,7.57
2018-03-04T23:09:10.286Z,7.77
2018-03-04T23:11:38.572Z,8.30
2018-03-04T23:14:06.823Z,7.47
2018-03-04T23:16:35.089Z,7.40
2018-03-04T23:19:03.327Z,7.60
2018-03-04T23:21:32.357Z,7.07
2018-03-04T23:24:00.846Z,7.27
2018-03-04T23:26:29.084Z,7.67
2018-03-04T23:28:58.078Z,6.90
2018-03-04T23:31:27.078Z,7.37
2018-03-04T23:33:56.091Z,7.00
2018-03-04T23:36:25.141Z,7.17
2018-03-04T23:38:53.418Z,6.73
2018-03-04T23:41:22.420Z,6.63
2018-03-04T23:43:51.424Z,6.67
2018-03-04T23:46:20.434Z,6.07
2018-03-04T23:48:48.643Z,6.00
2018-03-04T23:51:17.695Z,5.90
2018-03-04T23:53:45.931Z,6.80
2018-03-04T23:56:14.191Z,6.70
2018-03-04T23:58:42.435Z,6.80
